createdAt,value
2022-12-18T00:01:46.757Z,92.73
2022-12-18T00:04:31.929Z,92.74
2022-12-18T00:07:21.980Z,92.48
2022-12-18T00:09:55.474Z,92.57
2022-12-18T00:12:48.328Z,92.42
2022-12-18T00:15:23.783Z,92.13
2022-12-18T00:18:00.652Z,91.96
2022-12-18T00:24:05.101Z,92.42
2022-12-18T00:26:53.247Z,92.37
2022-12-18T00:29:44.765Z,92.08
2022-12-18T00:32:50.215Z,92.91
2022-12-18T00:35:39.381Z,93.04
2022-12-18T00:38:32.130Z,92.94
2022-12-18T00:41:47.920Z,92.85
2022-12-18T00:44:22.853Z,92.86
2022-12-18T00:47:22.867Z,93.20
2022-12-18T00:50:03.248Z,92.83
2022-12-18T00:53:05.270Z,93.36
2022-12-18T00:55:35.838Z,93.32
2022-12-18T00:58:06.058Z,93.57
2022-12-18T01:00:39.424Z,93.37
2022-12-18T01:03:35.865Z,93.60
2022-12-18T01:07:27.485Z,92.75
2022-12-18T01:10:46.597Z,93.78
2022-12-18T01:13:59.414Z,93.48
2022-12-18T01:16:40.390Z,93.71
2022-12-18T01:19:43.363Z,93.75
2022-12-18T01:25:28.781Z,93.52
2022-12-18T01:28:23.887Z,93.28
2022-12-18T01:31:09.983Z,92.75
2022-12-18T01:34:00.549Z,92.42
2022-12-18T01:37:06.239Z,92.58
2022-12-18T01:39:42.346Z,92.09
2022-12-18T01:42:18.251Z,92.14
2022-12-18T01:45:06.306Z,92.21
2022-12-18T01:47:54.029Z,92.14
2022-12-18T01:50:35.038Z,91.82
2022-12-18T01:53:12.398Z,91.69
2022-12-18T01:55:52.149Z,92.21
2022-12-18T01:59:09.869Z,92.19
2022-12-18T02:01:59.028Z,92.04
2022-12-18T02:08:24.076Z,91.84
2022-12-18T02:11:08.017Z,91.76
2022-12-18T02:13:49.605Z,91.50
2022-12-18T02:17:02.650Z,91.85
2022-12-18T02:20:02.864Z,91.94
2022-12-18T02:23:14.144Z,92.45
2022-12-18T02:26:12.018Z,92.46
2022-12-18T02:36:53.049Z,91.59
2022-12-18T02:39:31.671Z,91.47
2022-12-18T02:42:44.388Z,91.19
2022-12-18T02:45:37.062Z,91.37
2022-12-18T02:48:28.562Z,91.31
2022-12-18T02:51:17.725Z,91.62
2022-12-18T02:54:06.174Z,91.71
2022-12-18T02:56:48.687Z,91.70
2022-12-18T02:59:34.066Z,91.84
2022-12-18T03:02:21.444Z,92.12
2022-12-18T03:04:58.982Z,91.75
2022-12-18T03:08:04.027Z,91.90
2022-12-18T03:10:42.437Z,91.72
2022-12-18T03:13:24.742Z,91.83
2022-12-18T03:16:14.781Z,91.74
2022-12-18T03:18:49.537Z,91.76
2022-12-18T03:21:23.881Z,91.72
2022-12-18T03:24:16.529Z,91.95
2022-12-18T03:27:04.819Z,92.07
2022-12-18T03:30:08.590Z,92.07
2022-12-18T03:32:49.029Z,92.28
2022-12-18T03:35:32.991Z,92.63
2022-12-18T03:38:06.061Z,92.55
2022-12-18T03:40:45.833Z,92.20
2022-12-18T03:43:49.167Z,91.96
2022-12-18T03:46:30.156Z,91.90
2022-12-18T03:49:05.340Z,92.47
2022-12-18T03:51:49.776Z,92.20
2022-12-18T03:54:24.916Z,92.02
2022-12-18T03:57:03.764Z,92.10
2022-12-18T03:59:40.545Z,91.97
2022-12-18T04:02:11.226Z,91.94
2022-12-18T04:04:46.511Z,92.15
2022-12-18T04:07:44.793Z,91.90
2022-12-18T04:10:28.840Z,91.80
2022-12-18T04:13:01.419Z,91.64
2022-12-18T04:15:38.553Z,91.80
2022-12-18T04:18:13.229Z,91.81
2022-12-18T04:20:49.304Z,91.81
2022-12-18T04:23:29.550Z,91.48
2022-12-18T04:26:01.187Z,91.96
2022-12-18T04:28:49.654Z,91.71
2022-12-18T04:31:21.792Z,91.56
2022-12-18T04:33:51.243Z,91.70
2022-12-18T04:36:22.372Z,91.43
2022-12-18T04:38:51.775Z,90.95
2022-12-18T04:41:21.588Z,91.23
2022-12-18T04:43:54.681Z,91.60
2022-12-18T04:46:26.508Z,91.49
2022-12-18T04:48:55.927Z,91.30
2022-12-18T04:51:29.344Z,91.39
2022-12-18T04:54:01.405Z,91.29
2022-12-18T04:56:43.406Z,91.49
2022-12-18T05:02:43.657Z,90.65
2022-12-18T05:05:33.770Z,90.85
2022-12-18T05:08:52.101Z,90.80
2022-12-18T05:11:55.058Z,90.82
2022-12-18T05:14:36.263Z,90.68
2022-12-18T05:17:05.769Z,90.71
2022-12-18T05:19:43.550Z,90.57
2022-12-18T05:22:13.283Z,90.61
2022-12-18T05:25:06.341Z,90.90
2022-12-18T05:27:44.586Z,90.96
2022-12-18T05:30:21.633Z,91.51
2022-12-18T05:32:58.566Z,91.61
2022-12-18T05:35:33.962Z,91.27
2022-12-18T05:38:06.332Z,91.36
2022-12-18T05:40:38.209Z,91.40
2022-12-18T05:43:07.572Z,91.24
2022-12-18T05:45:40.599Z,91.30
2022-12-18T05:48:21.559Z,91.02
2022-12-18T05:50:52.093Z,91.01
2022-12-18T05:53:22.749Z,90.82
2022-12-18T05:55:56.730Z,90.91
2022-12-18T05:58:51.409Z,91.58
2022-12-18T06:01:30.729Z,91.39
2022-12-18T06:04:21.778Z,91.29
2022-12-18T06:06:52.819Z,91.65
2022-12-18T06:09:52.637Z,91.34
2022-12-18T06:12:40.060Z,91.35
2022-12-18T06:15:45.445Z,91.23
2022-12-18T06:18:24.490Z,91.18
2022-12-18T06:20:58.652Z,90.95
2022-12-18T06:23:37.787Z,91.59
2022-12-18T06:26:10.266Z,91.05
2022-12-18T06:28:43.534Z,91.22
2022-12-18T06:31:27.198Z,90.90
2022-12-18T06:33:59.975Z,91.09
2022-12-18T06:36:33.473Z,91.10
2022-12-18T06:39:30.116Z,91.38
2022-12-18T06:42:25.325Z,91.07
2022-12-18T06:44:55.960Z,90.93
2022-12-18T06:47:25.054Z,90.56
2022-12-18T06:50:06.665Z,91.04
2022-12-18T06:52:40.779Z,90.98
2022-12-18T06:55:14.462Z,90.89
2022-12-18T06:57:44.379Z,90.72
2022-12-18T07:00:19.108Z,90.94
2022-12-18T07:02:49.108Z,90.66
2022-12-18T07:05:21.705Z,90.74
2022-12-18T07:07:51.719Z,90.64
2022-12-18T07:10:30.851Z,90.77
2022-12-18T07:13:44.157Z,90.87
2022-12-18T07:16:54.183Z,90.75
2022-12-18T07:19:43.513Z,90.64
2022-12-18T07:22:35.450Z,90.71
2022-12-18T07:25:33.189Z,90.51
2022-12-18T07:28:02.925Z,90.94
2022-12-18T07:31:01.715Z,91.09
2022-12-18T07:34:23.004Z,90.88
2022-12-18T07:36:56.125Z,91.41
2022-12-18T07:39:34.848Z,91.54
2022-12-18T07:42:47.247Z,90.95
2022-12-18T07:46:40.026Z,90.96
2022-12-18T07:49:13.624Z,91.00
2022-12-18T07:51:51.011Z,91.21
2022-12-18T07:54:29.427Z,91.13
2022-12-18T07:57:07.462Z,91.28
2022-12-18T07:59:59.880Z,91.14
2022-12-18T08:02:30.909Z,91.30
2022-12-18T08:05:03.978Z,91.25
2022-12-18T08:07:41.200Z,90.86
2022-12-18T08:10:11.932Z,90.48
2022-12-18T08:12:42.356Z,90.67
2022-12-18T08:15:31.216Z,90.71
2022-12-18T08:18:14.465Z,90.58
2022-12-18T08:20:49.005Z,90.51
2022-12-18T08:23:28.946Z,90.33
2022-12-18T08:26:11.039Z,90.18
2022-12-18T08:28:47.496Z,90.41
2022-12-18T08:31:23.447Z,89.95
2022-12-18T08:33:55.413Z,90.04
2022-12-18T08:36:31.471Z,89.69
2022-12-18T08:39:12.857Z,89.66
2022-12-18T08:42:11.546Z,89.58
2022-12-18T08:44:54.058Z,89.76
2022-12-18T08:47:29.299Z,89.95
2022-12-18T08:49:59.008Z,90.05
2022-12-18T08:52:34.249Z,89.64
2022-12-18T08:55:03.889Z,89.95
2022-12-18T08:57:35.193Z,89.30
2022-12-18T09:00:08.909Z,89.68
2022-12-18T09:02:38.592Z,89.34
2022-12-18T09:05:14.274Z,89.16
2022-12-18T09:07:54.405Z,88.63
2022-12-18T09:10:33.151Z,88.90
2022-12-18T09:13:03.042Z,88.85
2022-12-18T09:15:53.973Z,88.78
2022-12-18T09:18:36.450Z,88.38
2022-12-18T09:21:11.521Z,88.32
2022-12-18T09:23:46.108Z,88.36
2022-12-18T09:26:18.520Z,88.48
2022-12-18T09:28:51.709Z,87.98
2022-12-18T09:31:44.117Z,88.16
2022-12-18T09:34:39.466Z,88.56
2022-12-18T09:37:16.445Z,88.75
2022-12-18T09:39:48.010Z,89.20
2022-12-18T09:42:38.299Z,89.56
2022-12-18T09:45:28.386Z,89.48
2022-12-18T09:48:03.811Z,88.81
2022-12-18T09:50:37.328Z,87.89
2022-12-18T09:53:10.316Z,88.05
2022-12-18T09:55:50.411Z,87.39
2022-12-18T09:58:26.381Z,87.28
2022-12-18T10:00:58.989Z,87.70
2022-12-18T10:04:28.256Z,88.09
2022-12-18T10:06:54.943Z,88.24
2022-12-18T10:09:32.755Z,88.32
2022-12-18T10:12:12.192Z,88.11
2022-12-18T10:15:06.072Z,88.42
2022-12-18T10:17:44.490Z,87.67
2022-12-18T10:20:49.019Z,87.28
2022-12-18T10:24:10.419Z,87.41
2022-12-18T10:27:34.094Z,87.45
2022-12-18T10:30:23.105Z,87.27
2022-12-18T10:33:04.075Z,87.05
2022-12-18T10:35:40.761Z,87.03
2022-12-18T10:41:34.416Z,87.04
2022-12-18T10:44:21.441Z,87.68
2022-12-18T10:46:52.182Z,88.01
2022-12-18T10:49:50.351Z,87.81
2022-12-18T10:52:21.597Z,87.49
2022-12-18T10:54:56.635Z,87.66
2022-12-18T10:57:38.833Z,87.38
2022-12-18T11:00:27.695Z,86.94
2022-12-18T11:03:00.412Z,86.93
2022-12-18T11:05:32.965Z,86.60
2022-12-18T11:08:08.296Z,87.37
2022-12-18T11:10:53.654Z,87.21
2022-12-18T11:13:35.162Z,86.41
2022-12-18T11:16:06.752Z,86.53
2022-12-18T11:18:37.352Z,86.57
2022-12-18T11:21:14.123Z,85.79
2022-12-18T11:23:49.165Z,85.72
2022-12-18T11:26:19.383Z,85.20
2022-12-18T11:28:52.168Z,85.64
2022-12-18T11:31:26.226Z,85.29
2022-12-18T11:34:27.991Z,85.57
2022-12-18T11:36:55.921Z,84.49
2022-12-18T11:39:33.183Z,85.07
2022-12-18T11:42:13.069Z,84.77
2022-12-18T11:44:48.683Z,84.75
2022-12-18T11:47:29.572Z,85.10
2022-12-18T11:50:01.414Z,84.11
2022-12-18T11:52:35.990Z,85.07
2022-12-18T11:55:13.202Z,85.41
2022-12-18T11:57:50.325Z,85.27
2022-12-18T12:00:39.896Z,84.32
2022-12-18T12:06:35.133Z,84.25
2022-12-18T12:09:12.611Z,84.83
2022-12-18T12:12:09.985Z,84.42
2022-12-18T12:14:50.350Z,84.72
2022-12-18T12:17:34.903Z,85.04
2022-12-18T12:20:13.221Z,84.53
2022-12-18T12:22:46.921Z,85.00
2022-12-18T12:25:24.379Z,84.82
2022-12-18T12:28:04.676Z,85.22
2022-12-18T12:30:39.402Z,84.01
2022-12-18T12:33:21.817Z,84.18
2022-12-18T12:36:24.187Z,83.79
2022-12-18T12:38:57.482Z,84.23
2022-12-18T12:41:46.656Z,83.78
2022-12-18T12:44:19.737Z,83.90
2022-12-18T12:47:23.457Z,84.00
2022-12-18T12:49:57.607Z,82.83
2022-12-18T12:52:33.900Z,83.15
2022-12-18T12:55:17.675Z,83.41
2022-12-18T12:57:53.322Z,83.91
2022-12-18T13:00:23.338Z,84.10
2022-12-18T13:02:55.509Z,84.39
2022-12-18T13:05:28.083Z,84.85
2022-12-18T13:11:59.732Z,85.81
2022-12-18T13:14:32.869Z,85.14
2022-12-18T13:17:48.858Z,85.18
2022-12-18T13:20:22.038Z,85.96
2022-12-18T13:22:52.991Z,86.18
2022-12-18T13:25:37.959Z,86.06
2022-12-18T13:28:14.443Z,85.54
2022-12-18T13:31:03.267Z,85.77
2022-12-18T13:34:24.522Z,84.99
2022-12-18T13:37:46.008Z,85.19
2022-12-18T13:41:00.104Z,85.18
2022-12-18T13:43:33.968Z,84.71
2022-12-18T13:46:26.843Z,84.27
2022-12-18T13:49:13.348Z,84.54
2022-12-18T13:51:45.824Z,84.33
2022-12-18T13:54:42.748Z,84.44
2022-12-18T13:57:28.748Z,84.68
2022-12-18T14:00:31.761Z,85.05
2022-12-18T14:03:02.260Z,84.91
2022-12-18T14:06:01.427Z,85.33
2022-12-18T14:08:52.707Z,85.12
2022-12-18T14:11:35.840Z,84.72
2022-12-18T14:14:16.807Z,84.79
2022-12-18T14:16:56.859Z,84.60
2022-12-18T14:19:40.802Z,85.48
2022-12-18T14:22:31.000Z,84.99
2022-12-18T14:25:26.413Z,84.81
2022-12-18T14:28:47.728Z,84.61
2022-12-18T14:31:21.268Z,84.12
2022-12-18T14:33:55.448Z,84.27
2022-12-18T14:36:31.712Z,84.78
2022-12-18T14:39:03.653Z,84.35
2022-12-18T14:41:34.307Z,84.80
2022-12-18T14:44:12.108Z,85.44
2022-12-18T14:47:00.557Z,85.04
2022-12-18T14:49:59.750Z,85.01
2022-12-18T14:52:34.383Z,85.09
2022-12-18T14:55:04.109Z,85.88
2022-12-18T14:57:41.489Z,85.76
2022-12-18T15:00:20.621Z,85.57
2022-12-18T15:02:53.303Z,85.18
2022-12-18T15:05:31.283Z,85.71
2022-12-18T15:08:03.385Z,86.04
2022-12-18T15:10:33.701Z,86.06
2022-12-18T15:13:32.980Z,85.46
2022-12-18T15:16:14.372Z,85.17
2022-12-18T15:18:49.222Z,85.85
2022-12-18T15:21:21.794Z,85.59
2022-12-18T15:23:57.037Z,86.17
2022-12-18T15:26:57.376Z,86.37
2022-12-18T15:30:14.997Z,85.76
2022-12-18T15:32:52.874Z,85.15
2022-12-18T15:35:34.899Z,86.16
2022-12-18T15:38:29.172Z,85.83
2022-12-18T15:41:14.466Z,85.59
2022-12-18T15:44:18.272Z,86.01
2022-12-18T15:46:50.555Z,85.60
2022-12-18T15:49:20.766Z,85.65
2022-12-18T15:52:09.216Z,85.66
2022-12-18T15:55:36.905Z,85.65
2022-12-18T15:58:15.514Z,86.16
2022-12-18T16:00:45.835Z,85.96
2022-12-18T16:03:21.589Z,86.01
2022-12-18T16:06:12.498Z,85.74
2022-12-18T16:08:49.473Z,86.04
2022-12-18T16:11:47.346Z,86.36
2022-12-18T16:14:20.643Z,86.52
2022-12-18T16:16:56.802Z,86.78
2022-12-18T16:19:27.407Z,86.06
2022-12-18T16:22:01.967Z,86.34
2022-12-18T16:24:37.346Z,86.71
2022-12-18T16:27:12.962Z,86.99
2022-12-18T16:29:57.203Z,87.16
2022-12-18T16:32:30.293Z,87.42
2022-12-18T16:35:26.118Z,87.31
2022-12-18T16:38:13.441Z,87.23
2022-12-18T16:41:36.815Z,86.48
2022-12-18T16:44:19.201Z,86.72
2022-12-18T16:46:50.916Z,86.34
2022-12-18T16:49:26.423Z,86.46
2022-12-18T16:52:08.421Z,86.81
2022-12-18T16:54:48.887Z,86.82
2022-12-18T16:57:32.422Z,87.47
2022-12-18T17:00:07.947Z,87.18
2022-12-18T17:02:45.181Z,87.48
2022-12-18T17:05:26.745Z,87.50
2022-12-18T17:08:02.598Z,87.74
2022-12-18T17:10:49.838Z,87.34
2022-12-18T17:13:31.307Z,87.19
2022-12-18T17:16:17.976Z,87.20
2022-12-18T17:18:53.056Z,87.05
2022-12-18T17:21:47.534Z,86.78
2022-12-18T17:24:23.429Z,86.74
2022-12-18T17:26:52.790Z,87.67
2022-12-18T17:29:25.689Z,87.94
2022-12-18T17:32:26.644Z,87.97
2022-12-18T17:35:19.079Z,88.04
2022-12-18T17:38:17.291Z,87.69
2022-12-18T17:41:22.907Z,87.43
2022-12-18T17:44:00.098Z,87.61
2022-12-18T17:46:40.305Z,87.16
2022-12-18T17:49:20.816Z,87.31
2022-12-18T17:51:51.734Z,87.15
2022-12-18T17:54:53.838Z,87.13
2022-12-18T17:57:26.386Z,87.45
2022-12-18T18:00:17.718Z,87.58
2022-12-18T18:02:47.489Z,87.57
2022-12-18T18:05:41.818Z,87.69
2022-12-18T18:08:16.961Z,87.49
2022-12-18T18:10:49.204Z,87.35
2022-12-18T18:13:46.907Z,87.16
2022-12-18T18:16:19.595Z,86.95
2022-12-18T18:18:53.862Z,86.85
2022-12-18T18:21:30.672Z,86.36
2022-12-18T18:24:05.090Z,86.30
2022-12-18T18:26:41.933Z,86.11
2022-12-18T18:29:15.060Z,86.12
2022-12-18T18:31:47.487Z,86.15
2022-12-18T18:34:17.693Z,86.01
2022-12-18T18:36:49.926Z,86.04
2022-12-18T18:39:26.885Z,85.91
2022-12-18T18:41:57.745Z,86.20
2022-12-18T18:44:44.513Z,86.62
2022-12-18T18:47:18.568Z,86.60
2022-12-18T18:49:47.767Z,86.98
2022-12-18T18:52:33.452Z,86.81
2022-12-18T18:55:20.978Z,87.00
2022-12-18T18:57:58.576Z,86.85
2022-12-18T19:01:13.141Z,86.84
2022-12-18T19:03:43.729Z,86.73
2022-12-18T19:06:34.169Z,86.94
2022-12-18T19:09:13.096Z,87.04
2022-12-18T19:12:06.362Z,86.94
2022-12-18T19:14:56.244Z,87.26
2022-12-18T19:17:29.733Z,87.47
2022-12-18T19:19:59.701Z,87.64
2022-12-18T19:22:28.858Z,87.83
2022-12-18T19:25:02.050Z,87.50
2022-12-18T19:27:36.676Z,87.26
2022-12-18T19:30:12.738Z,87.33
2022-12-18T19:32:42.667Z,87.13
2022-12-18T19:35:12.344Z,86.87
2022-12-18T19:37:44.736Z,87.11
2022-12-18T19:40:16.087Z,87.21
2022-12-18T19:42:47.656Z,87.39
2022-12-18T19:45:31.274Z,87.02
2022-12-18T19:48:04.714Z,87.41
2022-12-18T19:50:34.696Z,87.53
2022-12-18T19:53:04.491Z,87.37
2022-12-18T19:55:44.858Z,88.04
2022-12-18T19:58:16.549Z,87.94
2022-12-18T20:00:54.623Z,88.08
2022-12-18T20:03:30.538Z,87.48
2022-12-18T20:06:11.363Z,86.87
2022-12-18T20:08:54.016Z,86.76
2022-12-18T20:11:41.702Z,86.57
2022-12-18T20:14:12.253Z,86.95
2022-12-18T20:16:45.630Z,86.49
2022-12-18T20:19:23.635Z,85.95
2022-12-18T20:21:56.728Z,85.63
2022-12-18T20:24:28.791Z,85.37
2022-12-18T20:27:02.944Z,85.26
2022-12-18T20:29:32.823Z,84.63
2022-12-18T20:32:02.361Z,84.63
2022-12-18T20:34:31.844Z,84.11
2022-12-18T20:37:01.037Z,84.29
2022-12-18T20:39:33.901Z,84.06
2022-12-18T20:42:06.599Z,84.02
2022-12-18T20:44:37.540Z,83.88
2022-12-18T20:47:07.708Z,83.55
2022-12-18T20:49:44.333Z,83.44
2022-12-18T20:52:21.010Z,83.59
2022-12-18T20:54:54.301Z,83.25
2022-12-18T20:57:29.746Z,83.45
2022-12-18T21:00:12.571Z,83.76
2022-12-18T21:02:48.641Z,83.56
2022-12-18T21:05:21.980Z,83.56
2022-12-18T21:07:52.206Z,83.32
2022-12-18T21:10:33.727Z,83.66
2022-12-18T21:13:06.808Z,83.31
2022-12-18T21:15:41.245Z,83.58
2022-12-18T21:18:10.956Z,83.07
2022-12-18T21:20:40.050Z,83.99
2022-12-18T21:23:16.218Z,83.92
2022-12-18T21:25:53.024Z,83.88
2022-12-18T21:28:42.225Z,83.59
2022-12-18T21:31:21.307Z,84.46
2022-12-18T21:33:52.000Z,84.99
2022-12-18T21:36:31.033Z,85.15
2022-12-18T21:39:12.439Z,84.71
2022-12-18T21:42:02.660Z,84.85
2022-12-18T21:44:43.896Z,84.95
2022-12-18T21:47:23.473Z,85.35
2022-12-18T21:50:00.129Z,84.90
2022-12-18T21:52:32.104Z,84.77
2022-12-18T21:55:16.033Z,84.51
2022-12-18T21:57:50.541Z,84.36
2022-12-18T22:00:24.747Z,84.60
2022-12-18T22:03:17.407Z,84.32
2022-12-18T22:06:04.089Z,84.68
2022-12-18T22:08:43.418Z,84.61
2022-12-18T22:11:14.817Z,85.23
2022-12-18T22:13:48.938Z,85.34
2022-12-18T22:16:30.305Z,85.46
2022-12-18T22:19:18.155Z,85.59
2022-12-18T22:21:49.410Z,86.11
2022-12-18T22:24:20.848Z,86.21
2022-12-18T22:27:22.512Z,86.76
2022-12-18T22:30:06.150Z,86.66
2022-12-18T22:32:40.263Z,86.58
2022-12-18T22:35:23.381Z,86.69
2022-12-18T22:38:09.995Z,86.78
2022-12-18T22:40:48.306Z,85.96
2022-12-18T22:43:29.583Z,86.00
2022-12-18T22:46:42.104Z,86.48
2022-12-18T22:49:39.218Z,86.56
2022-12-18T22:55:28.633Z,86.51
2022-12-18T22:58:06.759Z,87.11
2022-12-18T23:00:45.787Z,87.18
2022-12-18T23:03:21.906Z,86.76
2022-12-18T23:06:21.162Z,86.14
2022-12-18T23:09:03.767Z,86.70
2022-12-18T23:11:37.575Z,86.34
2022-12-18T23:14:14.350Z,86.37
2022-12-18T23:16:44.162Z,86.49
2022-12-18T23:19:17.767Z,86.29
2022-12-18T23:21:50.663Z,86.69
2022-12-18T23:24:38.076Z,86.44
2022-12-18T23:27:13.334Z,86.75
2022-12-18T23:29:53.068Z,87.07
2022-12-18T23:32:43.565Z,87.73
2022-12-18T23:35:33.630Z,87.53
2022-12-18T23:38:04.588Z,87.86
2022-12-18T23:40:34.608Z,87.86
2022-12-18T23:43:04.422Z,87.23
2022-12-18T23:45:34.645Z,87.52
2022-12-18T23:48:07.202Z,87.83
2022-12-18T23:50:39.436Z,88.25
2022-12-18T23:53:19.492Z,88.17
2022-12-18T23:55:49.743Z,88.11
2022-12-18T23:58:21.929Z,88.41
